Time;durP1;ratioP1;P1;durP2;ratioP2;P2;SDS_P1;SDS_P2;PMS_P1;PMS_P2;Temp;Humidity;BMP_temperature;BMP_pressure;BME280_temperature;BME280_humidity;BME280_pressure;Samples;Min_cycle;Max_cycle;Signal;HPM_P1;HPM_P2
2021/12/22 00:01:39;;;;;;;23.67;18.50;;;;;;;;;;6088514;23;20691;-88
2021/12/22 00:04:06;;;;;;;23.05;18.52;;;;;;;;;;6088260;23;20373;-87
2021/12/22 00:06:34;;;;;;;24.60;18.60;;;;;;;;;;6088697;23;20360;-88
2021/12/22 00:09:04;;;;;;;22.85;18.38;;;;;;;;;;6089092;23;20961;-88
2021/12/22 00:11:30;;;;;;;25.00;18.55;;;;;;;;;;6088432;23;20373;-89
2021/12/22 00:13:57;;;;;;;23.88;18.65;;;;;;;;;;6089053;23;20391;-88
2021/12/22 00:16:26;;;;;;;22.80;18.33;;;;;;;;;;6088915;23;20368;-88
2021/12/22 00:18:53;;;;;;;24.52;18.63;;;;;;;;;;6088817;23;20426;-89
2021/12/22 00:21:21;;;;;;;24.08;18.13;;;;;;;;;;6088191;23;20392;-89
2021/12/22 00:23:48;;;;;;;26.10;18.20;;;;;;;;;;6088861;23;20400;-89
2021/12/22 00:26:15;;;;;;;25.07;18.93;;;;;;;;;;6087951;23;20373;-87
2021/12/22 00:28:42;;;;;;;23.30;18.45;;;;;;;;;;6088225;23;20383;-87
2021/12/22 00:31:12;;;;;;;23.38;17.88;;;;;;;;;;6088496;23;20376;-89
2021/12/22 00:33:48;;;;;;;24.23;18.27;;;;;;;;;;6089374;23;20376;-88
2021/12/22 00:36:16;;;;;;;27.13;19.52;;;;;;;;;;6087704;23;20376;-88
2021/12/22 00:38:43;;;;;;;24.63;18.77;;;;;;;;;;6088956;23;20365;-88
2021/12/22 00:41:10;;;;;;;24.42;18.55;;;;;;;;;;6088095;23;20393;-88
2021/12/22 00:43:37;;;;;;;24.42;18.92;;;;;;;;;;6088411;23;20376;-89
2021/12/22 00:46:04;;;;;;;25.77;19.27;;;;;;;;;;6088172;23;20388;-89
2021/12/22 00:48:32;;;;;;;25.27;19.52;;;;;;;;;;6086631;23;20943;-89
2021/12/22 00:51:01;;;;;;;24.52;18.83;;;;;;;;;;6086974;23;20719;-89
2021/12/22 00:53:28;;;;;;;24.00;18.85;;;;;;;;;;6086886;23;20382;-88
2021/12/22 00:55:55;;;;;;;24.00;18.40;;;;;;;;;;6087272;23;20422;-89
2021/12/22 00:58:21;;;;;;;25.70;18.60;;;;;;;;;;6087125;23;20394;-89
2021/12/22 01:00:49;;;;;;;24.30;18.05;;;;;;;;;;6087220;23;20407;-89
2021/12/22 01:03:17;;;;;;;23.33;18.27;;;;;;;;;;6088150;23;20373;-89
2021/12/22 01:05:45;;;;;;;24.33;18.10;;;;;;;;;;6086737;23;20377;-89
2021/12/22 01:08:14;;;;;;;27.80;18.55;;;;;;;;;;6086791;23;20372;-89
2021/12/22 01:10:41;;;;;;;24.33;18.27;;;;;;;;;;6087125;23;20888;-88
2021/12/22 01:13:08;;;;;;;25.07;17.97;;;;;;;;;;6087303;23;20381;-88
2021/12/22 01:15:37;;;;;;;26.20;18.42;;;;;;;;;;6086947;23;20697;-88
2021/12/22 01:18:10;;;;;;;25.08;17.98;;;;;;;;;;6087273;23;20387;-88
2021/12/22 01:20:50;;;;;;;24.55;17.73;;;;;;;;;;6086724;23;20411;-89
2021/12/22 01:23:20;;;;;;;23.88;17.17;;;;;;;;;;6086310;23;20570;-88
2021/12/22 01:25:48;;;;;;;23.27;16.83;;;;;;;;;;6087958;23;20373;-88
2021/12/22 01:28:16;;;;;;;25.10;17.40;;;;;;;;;;6087001;23;20700;-88
2021/12/22 01:30:46;;;;;;;23.25;17.38;;;;;;;;;;6087176;23;20373;-88
2021/12/22 01:33:15;;;;;;;26.88;18.02;;;;;;;;;;6085651;23;20438;-88
2021/12/22 01:35:42;;;;;;;23.27;17.33;;;;;;;;;;6085596;23;20369;-88
2021/12/22 01:38:09;;;;;;;25.33;17.08;;;;;;;;;;6085874;23;20854;-88
2021/12/22 01:40:42;;;;;;;22.25;16.50;;;;;;;;;;6086687;23;20371;-89
2021/12/22 01:43:09;;;;;;;25.37;17.60;;;;;;;;;;6086606;23;20373;-88
2021/12/22 01:45:53;;;;;;;23.35;17.17;;;;;;;;;;6087153;23;20364;-88
2021/12/22 01:51:25;;;;;;;22.33;16.58;;;;;;;;;;6086636;23;20372;-89
2021/12/22 01:53:52;;;;;;;23.05;17.15;;;;;;;;;;6086814;23;20392;-88
2021/12/22 01:56:23;;;;;;;21.95;16.55;;;;;;;;;;6087090;23;20806;-89
2021/12/22 01:58:52;;;;;;;20.57;16.03;;;;;;;;;;6087781;23;20407;-89
2021/12/22 02:01:19;;;;;;;23.95;16.02;;;;;;;;;;6086672;23;20385;-89
2021/12/22 02:03:48;;;;;;;23.10;16.92;;;;;;;;;;6088247;23;20372;-89
2021/12/22 02:06:16;;;;;;;21.52;16.58;;;;;;;;;;6088322;23;20687;-89
2021/12/22 02:08:45;;;;;;;21.07;16.37;;;;;;;;;;6092523;23;20464;-89
2021/12/22 02:11:13;;;;;;;21.57;16.40;;;;;;;;;;6092774;23;20753;-89
2021/12/22 02:13:45;;;;;;;21.75;16.73;;;;;;;;;;6091823;23;20373;-89
2021/12/22 02:16:15;;;;;;;23.50;17.48;;;;;;;;;;6091991;23;20401;-88
2021/12/22 02:18:45;;;;;;;25.30;17.58;;;;;;;;;;6090904;23;20421;-89
2021/12/22 02:21:14;;;;;;;23.73;17.73;;;;;;;;;;6089676;23;20416;-88
2021/12/22 02:23:41;;;;;;;24.13;17.85;;;;;;;;;;6088971;23;20448;-88
2021/12/22 02:26:12;;;;;;;24.60;18.02;;;;;;;;;;6088075;23;20372;-89
2021/12/22 02:28:44;;;;;;;22.25;17.25;;;;;;;;;;6085422;23;20459;-89
2021/12/22 02:31:15;;;;;;;25.02;17.67;;;;;;;;;;6086248;23;20369;-89
2021/12/22 02:33:46;;;;;;;24.35;17.85;;;;;;;;;;6087624;23;20436;-88
2021/12/22 02:36:22;;;;;;;24.15;17.40;;;;;;;;;;6088516;23;20475;-89
2021/12/22 02:38:52;;;;;;;23.88;17.13;;;;;;;;;;6088699;23;20407;-89
2021/12/22 02:41:22;;;;;;;25.73;17.88;;;;;;;;;;6085636;23;20392;-89
2021/12/22 02:43:52;;;;;;;23.60;17.15;;;;;;;;;;6087507;23;20640;-89
2021/12/22 02:46:22;;;;;;;23.52;17.20;;;;;;;;;;6087277;23;20436;-89
2021/12/22 02:48:50;;;;;;;24.48;17.45;;;;;;;;;;6088956;23;20597;-89
2021/12/22 02:51:20;;;;;;;25.85;17.58;;;;;;;;;;6088322;23;20884;-88
2021/12/22 02:53:59;;;;;;;21.02;16.88;;;;;;;;;;6088534;23;20667;-89
2021/12/22 02:56:34;;;;;;;22.35;16.90;;;;;;;;;;6088470;23;20369;-89
2021/12/22 02:59:10;;;;;;;21.42;16.30;;;;;;;;;;6089240;23;20702;-89
2021/12/22 03:04:30;;;;;;;25.05;17.80;;;;;;;;;;6088822;23;20379;-89
2021/12/22 03:07:01;;;;;;;24.77;17.40;;;;;;;;;;6089378;23;20383;-89
2021/12/22 03:09:30;;;;;;;23.40;16.80;;;;;;;;;;6088970;23;20698;-89
2021/12/22 03:12:00;;;;;;;23.63;17.45;;;;;;;;;;6089825;23;20396;-89
2021/12/22 03:14:28;;;;;;;21.73;15.63;;;;;;;;;;6089065;23;20582;-88
2021/12/22 03:16:56;;;;;;;22.92;17.08;;;;;;;;;;6089226;23;20842;-88
2021/12/22 03:19:25;;;;;;;22.63;17.15;;;;;;;;;;6088714;23;20372;-89
2021/12/22 03:21:59;;;;;;;21.65;16.30;;;;;;;;;;6087925;23;20400;-88
2021/12/22 03:24:28;;;;;;;23.02;17.45;;;;;;;;;;6089082;23;20671;-89
2021/12/22 03:26:59;;;;;;;24.55;18.02;;;;;;;;;;6088251;23;20360;-89
2021/12/22 03:29:26;;;;;;;25.05;17.23;;;;;;;;;;6088367;23;20717;-88
2021/12/22 03:31:53;;;;;;;24.00;16.40;;;;;;;;;;6088014;23;20428;-89
2021/12/22 03:34:20;;;;;;;25.52;16.85;;;;;;;;;;6088190;23;20778;-89
2021/12/22 03:36:47;;;;;;;22.83;16.92;;;;;;;;;;6087847;23;20369;-89
2021/12/22 03:39:15;;;;;;;23.00;16.63;;;;;;;;;;6087582;23;20431;-89
2021/12/22 03:41:45;;;;;;;23.02;16.65;;;;;;;;;;6088684;23;20428;-89
2021/12/22 03:44:13;;;;;;;23.08;16.63;;;;;;;;;;6088132;23;20390;-88
2021/12/22 03:46:40;;;;;;;22.88;16.15;;;;;;;;;;6088620;23;20575;-88
2021/12/22 03:49:08;;;;;;;23.75;16.63;;;;;;;;;;6089140;23;20670;-89
2021/12/22 03:51:36;;;;;;;24.13;16.38;;;;;;;;;;6088722;23;20384;-89
2021/12/22 03:54:03;;;;;;;24.15;15.43;;;;;;;;;;6088880;23;20400;-89
2021/12/22 03:56:30;;;;;;;20.52;16.15;;;;;;;;;;6089318;23;20369;-88
2021/12/22 03:58:58;;;;;;;21.48;15.77;;;;;;;;;;6088873;23;20364;-88
2021/12/22 04:01:26;;;;;;;23.05;16.42;;;;;;;;;;6088386;23;20385;-88
2021/12/22 04:03:57;;;;;;;21.77;15.90;;;;;;;;;;6088331;23;20380;-89
2021/12/22 04:06:24;;;;;;;22.38;15.15;;;;;;;;;;6087876;23;20463;-89
2021/12/22 04:08:50;;;;;;;21.40;14.93;;;;;;;;;;6088609;23;20372;-88
2021/12/22 04:11:17;;;;;;;20.27;15.25;;;;;;;;;;6088119;23;20377;-88
2021/12/22 04:13:44;;;;;;;20.15;15.18;;;;;;;;;;6088700;23;20368;-89
2021/12/22 04:16:12;;;;;;;21.98;15.65;;;;;;;;;;6088728;23;20364;-88
2021/12/22 04:18:39;;;;;;;22.13;15.60;;;;;;;;;;6088759;23;20369;-89
2021/12/22 04:21:06;;;;;;;20.88;15.45;;;;;;;;;;6088219;23;20386;-89
2021/12/22 04:23:33;;;;;;;22.27;15.57;;;;;;;;;;6088301;23;20861;-89
2021/12/22 04:26:00;;;;;;;21.70;15.05;;;;;;;;;;6088788;23;20368;-88
2021/12/22 04:28:27;;;;;;;21.00;14.93;;;;;;;;;;6088124;23;20375;-89
2021/12/22 04:30:54;;;;;;;20.75;15.07;;;;;;;;;;6087991;23;20377;-89
2021/12/22 04:33:22;;;;;;;22.38;15.75;;;;;;;;;;6088259;23;20365;-89
2021/12/22 04:35:50;;;;;;;21.08;15.68;;;;;;;;;;6087812;23;20693;-88
2021/12/22 04:38:16;;;;;;;21.48;15.50;;;;;;;;;;6087784;23;20392;-89
2021/12/22 04:40:44;;;;;;;21.07;15.13;;;;;;;;;;6088213;23;20361;-89
2021/12/22 04:43:11;;;;;;;19.52;14.93;;;;;;;;;;6088110;23;20404;-88
2021/12/22 04:45:38;;;;;;;20.02;15.00;;;;;;;;;;6088544;23;20380;-89
2021/12/22 04:48:05;;;;;;;20.33;14.45;;;;;;;;;;6089096;23;20391;-88
2021/12/22 04:50:35;;;;;;;19.88;15.27;;;;;;;;;;6088260;23;20864;-89
2021/12/22 04:53:07;;;;;;;19.08;14.85;;;;;;;;;;6087613;23;20419;-89
2021/12/22 04:55:34;;;;;;;22.92;16.00;;;;;;;;;;6088883;23;20379;-88
2021/12/22 04:58:01;;;;;;;19.23;14.68;;;;;;;;;;6088205;23;20369;-88
2021/12/22 05:00:30;;;;;;;20.42;14.70;;;;;;;;;;6087762;23;20668;-89
2021/12/22 05:02:58;;;;;;;19.10;14.93;;;;;;;;;;6086796;23;20389;-89
2021/12/22 05:05:25;;;;;;;21.98;14.80;;;;;;;;;;6085688;23;20436;-88
2021/12/22 05:07:54;;;;;;;20.10;14.27;;;;;;;;;;6060609;23;20368;-89
2021/12/22 05:10:21;;;;;;;20.40;14.60;;;;;;;;;;6086590;23;20394;-89
2021/12/22 05:12:49;;;;;;;19.23;14.35;;;;;;;;;;6087624;23;20365;-89
2021/12/22 05:15:19;;;;;;;22.90;17.17;;;;;;;;;;6086690;23;20853;-89
2021/12/22 05:20:33;;;;;;;19.02;14.45;;;;;;;;;;6049410;23;20372;-89
2021/12/22 05:23:01;;;;;;;19.40;14.48;;;;;;;;;;6086699;23;20392;-89
2021/12/22 05:25:28;;;;;;;22.77;14.30;;;;;;;;;;6087308;23;20424;-89
2021/12/22 05:27:55;;;;;;;19.40;14.13;;;;;;;;;;6088074;23;20538;-89
2021/12/22 05:30:22;;;;;;;20.30;15.13;;;;;;;;;;6087298;23;20701;-89
2021/12/22 05:32:53;;;;;;;21.77;15.07;;;;;;;;;;6087776;23;20372;-88
2021/12/22 05:35:20;;;;;;;18.98;14.30;;;;;;;;;;6087118;23;20407;-89
2021/12/22 05:37:47;;;;;;;23.17;15.90;;;;;;;;;;6087082;23;20369;-89
2021/12/22 05:40:15;;;;;;;27.58;19.48;;;;;;;;;;6086896;23;20368;-88
2021/12/22 05:42:42;;;;;;;24.48;17.98;;;;;;;;;;6088603;23;20694;-89
2021/12/22 05:45:10;;;;;;;22.90;17.80;;;;;;;;;;6089856;23;20397;-89
2021/12/22 05:47:37;;;;;;;25.67;17.10;;;;;;;;;;6089707;23;20372;-88
2021/12/22 05:50:06;;;;;;;25.58;16.60;;;;;;;;;;6089242;23;20841;-89
2021/12/22 05:52:33;;;;;;;25.02;17.58;;;;;;;;;;6089753;23;20371;-90
2021/12/22 05:55:00;;;;;;;23.73;15.82;;;;;;;;;;6091109;23;20380;-90
2021/12/22 05:57:29;;;;;;;22.83;15.10;;;;;;;;;;6091094;23;20364;-90
2021/12/22 05:59:55;;;;;;;20.92;15.40;;;;;;;;;;6066326;23;20373;-90
2021/12/22 06:02:23;;;;;;;22.80;15.10;;;;;;;;;;6088920;23;20384;-90
2021/12/22 06:04:50;;;;;;;23.80;14.95;;;;;;;;;;6089320;23;20373;-90
2021/12/22 06:07:16;;;;;;;23.05;15.25;;;;;;;;;;6089526;23;20451;-91
2021/12/22 06:09:43;;;;;;;22.50;15.30;;;;;;;;;;6088800;23;20380;-91
2021/12/22 06:12:11;;;;;;;19.95;14.55;;;;;;;;;;6089737;23;20372;-90
2021/12/22 06:14:39;;;;;;;23.48;15.35;;;;;;;;;;6090435;23;20369;-90
2021/12/22 06:17:06;;;;;;;20.73;14.60;;;;;;;;;;6089666;23;20368;-90
2021/12/22 06:19:33;;;;;;;21.58;14.98;;;;;;;;;;6089585;23;20372;-91
2021/12/22 06:22:00;;;;;;;21.25;15.00;;;;;;;;;;6090075;23;20372;-90
2021/12/22 06:24:29;;;;;;;21.90;15.87;;;;;;;;;;6090171;23;20425;-90
2021/12/22 06:26:56;;;;;;;24.58;16.08;;;;;;;;;;6090723;23;20400;-90
2021/12/22 06:29:23;;;;;;;21.80;15.82;;;;;;;;;;6089042;23;20627;-90
2021/12/22 06:31:52;;;;;;;22.17;15.98;;;;;;;;;;6089474;23;20380;-91
2021/12/22 06:34:19;;;;;;;20.65;15.95;;;;;;;;;;6091625;23;20400;-90
2021/12/22 06:36:46;;;;;;;21.08;15.35;;;;;;;;;;6089390;23;20369;-91
2021/12/22 06:39:15;;;;;;;21.23;15.45;;;;;;;;;;6089625;23;20372;-90
2021/12/22 06:41:42;;;;;;;22.13;15.17;;;;;;;;;;6090160;23;20470;-89
2021/12/22 06:44:09;;;;;;;22.67;15.32;;;;;;;;;;6090327;23;20388;-92
2021/12/22 06:46:36;;;;;;;29.70;19.38;;;;;;;;;;6089604;23;20372;-91
2021/12/22 06:49:04;;;;;;;48.83;30.07;;;;;;;;;;6087675;23;20372;-91
2021/12/22 06:51:31;;;;;;;83.33;46.63;;;;;;;;;;6087131;23;20373;-90
2021/12/22 06:53:58;;;;;;;41.03;24.92;;;;;;;;;;6088246;23;20376;-90
2021/12/22 06:56:25;;;;;;;38.80;25.40;;;;;;;;;;6063183;23;20369;-90
2021/12/22 06:58:52;;;;;;;27.98;20.10;;;;;;;;;;6089588;23;20373;-90
2021/12/22 07:01:20;;;;;;;28.33;18.25;;;;;;;;;;6088770;23;20460;-90
2021/12/22 07:03:47;;;;;;;25.45;17.13;;;;;;;;;;6088530;23;20892;-91
2021/12/22 07:06:16;;;;;;;20.75;15.73;;;;;;;;;;6087207;23;20375;-91
2021/12/22 07:08:43;;;;;;;24.75;16.13;;;;;;;;;;6088813;23;20746;-90
2021/12/22 07:11:10;;;;;;;21.23;16.02;;;;;;;;;;6088672;23;20369;-89
2021/12/22 07:13:38;;;;;;;24.40;15.73;;;;;;;;;;6089164;23;20376;-91
2021/12/22 07:16:06;;;;;;;22.67;16.63;;;;;;;;;;6088996;23;20369;-91
2021/12/22 07:18:34;;;;;;;21.50;14.98;;;;;;;;;;6088476;23;20392;-90
2021/12/22 07:21:01;;;;;;;19.83;13.88;;;;;;;;;;6088544;23;20714;-90
2021/12/22 07:23:29;;;;;;;20.08;14.13;;;;;;;;;;6088468;23;20385;-90
2021/12/22 07:25:56;;;;;;;18.45;13.63;;;;;;;;;;6089411;23;20376;-91
2021/12/22 07:28:23;;;;;;;19.03;12.87;;;;;;;;;;6087908;23;20813;-90
2021/12/22 07:30:51;;;;;;;18.50;13.82;;;;;;;;;;6087306;23;20364;-90
2021/12/22 07:33:18;;;;;;;17.90;13.57;;;;;;;;;;6087895;23;20376;-89
2021/12/22 07:35:53;;;;;;;18.90;13.00;;;;;;;;;;6088277;23;20369;-89
2021/12/22 07:38:32;;;;;;;20.65;13.20;;;;;;;;;;6088558;23;20384;-90
2021/12/22 07:41:01;;;;;;;18.92;13.10;;;;;;;;;;6088307;23;20368;-90
2021/12/22 07:43:29;;;;;;;18.95;13.35;;;;;;;;;;6063276;23;20873;-90
2021/12/22 07:45:57;;;;;;;19.42;13.95;;;;;;;;;;6089123;23;20394;-89
2021/12/22 07:48:25;;;;;;;24.83;14.63;;;;;;;;;;6088081;23;20377;-89
2021/12/22 07:50:53;;;;;;;23.88;16.17;;;;;;;;;;6088445;23;20766;-90
2021/12/22 07:53:20;;;;;;;23.77;14.77;;;;;;;;;;6088152;23;20377;-90
2021/12/22 07:55:52;;;;;;;24.92;16.40;;;;;;;;;;6088690;23;20368;-90
2021/12/22 07:58:19;;;;;;;25.08;15.88;;;;;;;;;;6087853;23;20383;-90
2021/12/22 08:00:46;;;;;;;26.25;16.17;;;;;;;;;;6088084;23;20423;-90
2021/12/22 08:03:13;;;;;;;23.27;14.88;;;;;;;;;;6087417;23;20395;-90
2021/12/22 08:05:40;;;;;;;25.85;16.15;;;;;;;;;;6087581;23;20435;-90
2021/12/22 08:08:07;;;;;;;22.08;15.30;;;;;;;;;;6087787;23;20373;-90
2021/12/22 08:10:34;;;;;;;23.23;16.38;;;;;;;;;;6088320;23;20369;-90
2021/12/22 08:13:03;;;;;;;23.50;17.02;;;;;;;;;;6088450;23;20893;-90
2021/12/22 08:15:30;;;;;;;25.13;17.33;;;;;;;;;;6088627;23;20369;-90
2021/12/22 08:17:58;;;;;;;26.67;18.20;;;;;;;;;;6088165;23;20372;-90
2021/12/22 08:20:25;;;;;;;24.42;17.60;;;;;;;;;;6087170;23;20958;-90
2021/12/22 08:22:53;;;;;;;29.50;18.33;;;;;;;;;;6088206;23;20389;-90
2021/12/22 08:25:20;;;;;;;27.08;19.08;;;;;;;;;;6087779;23;20373;-90
2021/12/22 08:27:48;;;;;;;25.07;17.73;;;;;;;;;;6088634;23;20436;-90
2021/12/22 08:30:16;;;;;;;26.92;18.65;;;;;;;;;;6088460;23;20435;-89
2021/12/22 08:32:43;;;;;;;25.20;17.67;;;;;;;;;;6088189;23;20372;-90
2021/12/22 08:35:13;;;;;;;26.02;17.88;;;;;;;;;;6087735;23;20372;-90
2021/12/22 08:40:25;;;;;;;29.50;18.35;;;;;;;;;;6087764;23;20367;-90
2021/12/22 08:42:53;;;;;;;26.77;17.77;;;;;;;;;;6087930;23;20380;-91
2021/12/22 08:45:21;;;;;;;24.30;17.35;;;;;;;;;;6088086;23;20872;-90
2021/12/22 08:47:48;;;;;;;24.25;17.27;;;;;;;;;;6088355;23;20853;-90
2021/12/22 08:50:17;;;;;;;27.30;17.38;;;;;;;;;;6087810;23;20384;-90
2021/12/22 08:52:44;;;;;;;22.17;16.87;;;;;;;;;;6088277;23;20444;-90
2021/12/22 08:55:11;;;;;;;22.80;16.10;;;;;;;;;;6088036;23;20388;-90
2021/12/22 08:57:39;;;;;;;22.95;15.90;;;;;;;;;;6088277;23;20361;-89
2021/12/22 09:00:09;;;;;;;22.63;15.32;;;;;;;;;;6087677;23;20845;-90
2021/12/22 09:02:37;;;;;;;22.35;15.50;;;;;;;;;;6088639;23;20427;-89
2021/12/22 09:05:06;;;;;;;21.88;16.00;;;;;;;;;;6087394;23;20403;-90
2021/12/22 09:07:34;;;;;;;22.60;15.75;;;;;;;;;;6095332;23;20374;-86
2021/12/22 09:10:01;;;;;;;23.08;16.10;;;;;;;;;;6119304;23;20436;-87
2021/12/22 09:12:29;;;;;;;24.40;16.23;;;;;;;;;;6120304;23;20371;-87
2021/12/22 09:14:57;;;;;;;21.80;15.75;;;;;;;;;;6095433;23;20425;-87
2021/12/22 09:17:24;;;;;;;21.48;15.88;;;;;;;;;;6095091;23;20378;-87
2021/12/22 09:19:53;;;;;;;20.77;15.20;;;;;;;;;;6119700;23;20371;-88
2021/12/22 09:22:20;;;;;;;23.50;15.23;;;;;;;;;;6119487;23;20363;-88
2021/12/22 09:24:47;;;;;;;22.95;14.85;;;;;;;;;;6119489;23;20394;-88
2021/12/22 09:27:15;;;;;;;21.08;15.07;;;;;;;;;;6119358;23;20373;-88
2021/12/22 09:29:42;;;;;;;20.42;14.80;;;;;;;;;;6119523;23;20367;-87
2021/12/22 09:32:12;;;;;;;20.67;14.27;;;;;;;;;;6119545;23;20696;-88
2021/12/22 09:34:40;;;;;;;21.13;14.38;;;;;;;;;;6093952;23;20367;-88
2021/12/22 09:37:08;;;;;;;20.27;14.27;;;;;;;;;;6119554;23;20377;-87
2021/12/22 09:39:35;;;;;;;20.92;14.88;;;;;;;;;;6120066;23;20741;-88
2021/12/22 09:42:02;;;;;;;21.23;14.30;;;;;;;;;;6119551;23;20371;-88
2021/12/22 09:44:32;;;;;;;25.13;16.20;;;;;;;;;;6119611;23;20482;-88
2021/12/22 09:47:00;;;;;;;21.70;15.23;;;;;;;;;;6120565;23;20371;-88
2021/12/22 09:49:46;;;;;;;23.35;15.75;;;;;;;;;;6118540;23;20411;-88
2021/12/22 09:52:19;;;;;;;22.75;15.95;;;;;;;;;;6119014;23;20740;-88
2021/12/22 09:54:46;;;;;;;22.77;15.75;;;;;;;;;;6119782;23;20848;-88
2021/12/22 09:57:15;;;;;;;21.65;15.30;;;;;;;;;;6119012;23;20378;-89
2021/12/22 09:59:42;;;;;;;18.33;14.30;;;;;;;;;;6119562;23;20363;-88
2021/12/22 10:02:09;;;;;;;18.35;13.70;;;;;;;;;;6119533;23;20367;-88
2021/12/22 10:04:35;;;;;;;20.42;13.23;;;;;;;;;;6119120;23;20683;-88
2021/12/22 10:07:02;;;;;;;19.50;13.93;;;;;;;;;;6120259;23;20463;-88
2021/12/22 10:09:31;;;;;;;19.98;14.68;;;;;;;;;;6119719;23;20383;-88
2021/12/22 10:12:05;;;;;;;20.00;13.60;;;;;;;;;;6119997;23;20371;-87
2021/12/22 10:14:33;;;;;;;17.33;12.93;;;;;;;;;;6119670;23;20379;-89
2021/12/22 10:17:00;;;;;;;20.17;13.35;;;;;;;;;;6119153;23;20375;-88
2021/12/22 10:19:28;;;;;;;18.17;12.38;;;;;;;;;;6119136;23;20378;-88
2021/12/22 10:21:58;;;;;;;15.88;11.88;;;;;;;;;;6121100;23;20378;-88
2021/12/22 10:24:38;;;;;;;16.70;12.48;;;;;;;;;;6119310;23;20391;-89
2021/12/22 10:27:07;;;;;;;15.85;13.05;;;;;;;;;;6119944;23;20371;-88
2021/12/22 10:29:35;;;;;;;17.42;13.02;;;;;;;;;;6121103;23;20367;-89
2021/12/22 10:32:14;;;;;;;17.58;12.02;;;;;;;;;;6120848;23;20371;-87
2021/12/22 10:34:58;;;;;;;15.35;11.85;;;;;;;;;;6120838;23;20375;-88
2021/12/22 10:37:33;;;;;;;13.05;9.65;;;;;;;;;;6118096;23;20916;-88
2021/12/22 10:40:01;;;;;;;9.30;6.38;;;;;;;;;;6120904;23;20371;-88
2021/12/22 10:42:41;;;;;;;8.50;6.35;;;;;;;;;;6120584;23;20378;-88
2021/12/22 10:45:16;;;;;;;10.15;6.55;;;;;;;;;;6120361;23;20387;-88
2021/12/22 10:50:35;;;;;;;9.10;6.60;;;;;;;;;;6121201;23;20378;-88
2021/12/22 10:53:02;;;;;;;9.30;6.00;;;;;;;;;;6122864;23;20860;-88
2021/12/22 10:55:39;;;;;;;7.00;5.40;;;;;;;;;;6142189;23;20411;-88
2021/12/22 10:58:16;;;;;;;8.73;5.93;;;;;;;;;;6142076;23;20375;-89
2021/12/22 11:00:43;;;;;;;8.30;6.10;;;;;;;;;;6118865;23;20430;-88
2021/12/22 11:03:14;;;;;;;8.25;6.07;;;;;;;;;;6118547;23;20401;-88
2021/12/22 11:05:45;;;;;;;10.93;6.60;;;;;;;;;;6119006;23;20395;-89
2021/12/22 11:08:20;;;;;;;8.68;7.15;;;;;;;;;;6118584;23;20375;-88
2021/12/22 11:10:49;;;;;;;8.73;6.50;;;;;;;;;;6118621;23;20374;-87
2021/12/22 11:13:20;;;;;;;12.80;7.20;;;;;;;;;;6118698;23;20374;-88
2021/12/22 11:15:47;;;;;;;7.72;6.10;;;;;;;;;;6118971;23;20405;-88
2021/12/22 11:18:26;;;;;;;9.98;6.30;;;;;;;;;;6118482;23;20370;-88
2021/12/22 11:21:08;;;;;;;9.13;6.78;;;;;;;;;;6118544;23;20371;-88
2021/12/22 11:23:36;;;;;;;11.00;7.13;;;;;;;;;;6118424;23;20399;-88
2021/12/22 11:26:04;;;;;;;10.25;7.47;;;;;;;;;;6119152;23;20379;-88
2021/12/22 11:28:33;;;;;;;12.10;7.20;;;;;;;;;;6118955;23;20371;-88
2021/12/22 11:31:02;;;;;;;8.43;6.40;;;;;;;;;;6118903;23;20406;-88
2021/12/22 11:33:30;;;;;;;8.45;6.60;;;;;;;;;;6118393;23;20407;-88
2021/12/22 11:35:58;;;;;;;9.45;6.32;;;;;;;;;;6118662;23;20446;-88
2021/12/22 11:38:28;;;;;;;9.25;6.78;;;;;;;;;;6118089;23;20367;-88
2021/12/22 11:41:02;;;;;;;9.70;6.43;;;;;;;;;;6118085;23;20379;-88
2021/12/22 11:43:31;;;;;;;10.57;6.45;;;;;;;;;;6118530;23;20395;-87
2021/12/22 11:45:58;;;;;;;10.82;7.25;;;;;;;;;;6118219;23;20381;-88
2021/12/22 11:48:25;;;;;;;8.48;6.40;;;;;;;;;;6117804;23;20689;-88
2021/12/22 11:50:52;;;;;;;10.18;6.20;;;;;;;;;;6117288;23;20378;-88
2021/12/22 11:53:19;;;;;;;8.40;6.40;;;;;;;;;;6117682;23;20390;-89
2021/12/22 11:55:47;;;;;;;9.18;6.57;;;;;;;;;;6118531;23;20375;-88
2021/12/22 11:58:19;;;;;;;9.27;6.37;;;;;;;;;;6118537;23;20680;-88
2021/12/22 12:00:59;;;;;;;8.93;6.70;;;;;;;;;;6118793;23;20712;-88
2021/12/22 12:03:30;;;;;;;9.27;7.43;;;;;;;;;;6117631;23;20748;-87
2021/12/22 12:06:06;;;;;;;10.27;7.30;;;;;;;;;;6118502;23;20387;-88
2021/12/22 12:08:35;;;;;;;11.00;7.55;;;;;;;;;;6117652;23;20457;-88
2021/12/22 12:11:03;;;;;;;9.93;7.60;;;;;;;;;;6093643;23;20359;-87
2021/12/22 12:13:39;;;;;;;9.07;6.60;;;;;;;;;;6118878;23;20363;-88
2021/12/22 12:21:57;;;;;;;9.13;6.80;;;;;;;;;;6115961;23;21226;-87
2021/12/22 12:24:34;;;;;;;9.98;6.63;;;;;;;;;;6115638;23;20533;-87
2021/12/22 12:27:24;;;;;;;10.70;6.68;;;;;;;;;;6116499;23;20367;-88
2021/12/22 12:29:55;;;;;;;8.85;6.07;;;;;;;;;;6115492;23;20407;-88
2021/12/22 12:32:55;;;;;;;8.35;5.57;;;;;;;;;;6115692;23;20370;-87
2021/12/22 12:35:26;;;;;;;10.30;6.35;;;;;;;;;;6115102;23;20930;-87
2021/12/22 12:38:12;;;;;;;9.15;6.50;;;;;;;;;;6115732;23;20386;-87
2021/12/22 12:41:16;;;;;;;8.52;6.13;;;;;;;;;;6115652;23;20708;-88
2021/12/22 12:44:11;;;;;;;8.48;5.78;;;;;;;;;;5997843;23;20373;-87
2021/12/22 12:46:45;;;;;;;8.00;5.75;;;;;;;;;;6117195;23;20367;-87
2021/12/22 12:49:44;;;;;;;10.77;6.15;;;;;;;;;;6116795;23;20379;-85
2021/12/22 12:52:24;;;;;;;8.68;6.20;;;;;;;;;;5999347;23;20370;-87
2021/12/22 12:54:55;;;;;;;9.75;6.80;;;;;;;;;;6099460;23;20475;-88
2021/12/22 12:57:32;;;;;;;9.07;6.00;;;;;;;;;;6115684;23;21399;-87
2021/12/22 13:00:05;;;;;;;9.48;6.20;;;;;;;;;;6118377;23;20359;-88
2021/12/22 13:02:33;;;;;;;8.75;6.25;;;;;;;;;;6117956;23;20370;-87
2021/12/22 13:05:02;;;;;;;9.95;6.68;;;;;;;;;;6117047;23;20398;-85
2021/12/22 13:07:31;;;;;;;8.75;6.35;;;;;;;;;;6116788;23;20402;-87
2021/12/22 13:10:02;;;;;;;8.18;6.55;;;;;;;;;;6118656;23;20360;-88
2021/12/22 13:12:45;;;;;;;9.48;6.75;;;;;;;;;;6118068;23;20371;-88
2021/12/22 13:18:01;;;;;;;8.75;6.68;;;;;;;;;;6117450;23;20458;-87
2021/12/22 13:20:30;;;;;;;9.68;6.60;;;;;;;;;;6117030;23;20378;-88
2021/12/22 13:23:01;;;;;;;8.75;6.85;;;;;;;;;;6118604;23;20729;-88
2021/12/22 13:25:30;;;;;;;9.93;7.15;;;;;;;;;;6117512;23;20860;-87
2021/12/22 13:27:58;;;;;;;8.15;6.75;;;;;;;;;;6118079;23;20692;-88
2021/12/22 13:30:28;;;;;;;10.80;7.20;;;;;;;;;;6117252;23;20406;-88
2021/12/22 13:32:57;;;;;;;8.80;6.05;;;;;;;;;;6117481;23;20418;-88
2021/12/22 13:35:38;;;;;;;8.07;6.22;;;;;;;;;;6115570;23;20415;-88
2021/12/22 13:38:09;;;;;;;9.10;6.82;;;;;;;;;;6116642;23;20364;-88
2021/12/22 13:40:38;;;;;;;10.18;7.10;;;;;;;;;;6117353;23;20851;-89
2021/12/22 13:43:05;;;;;;;9.40;6.75;;;;;;;;;;6116435;23;20454;-88
2021/12/22 13:45:33;;;;;;;7.88;6.65;;;;;;;;;;6090614;23;20454;-89
2021/12/22 13:48:00;;;;;;;9.10;6.72;;;;;;;;;;6115206;23;20867;-88
2021/12/22 13:50:28;;;;;;;8.60;6.97;;;;;;;;;;6090754;23;20371;-89
2021/12/22 13:52:55;;;;;;;8.60;7.60;;;;;;;;;;6116139;23;20371;-88
2021/12/22 13:55:24;;;;;;;9.35;7.28;;;;;;;;;;6114335;23;20439;-88
2021/12/22 13:57:51;;;;;;;10.10;7.67;;;;;;;;;;6115983;23;20422;-88
2021/12/22 14:00:21;;;;;;;11.65;7.65;;;;;;;;;;6114809;23;20371;-88
2021/12/22 14:02:48;;;;;;;10.95;7.70;;;;;;;;;;6117432;23;20370;-88
2021/12/22 14:05:18;;;;;;;11.40;7.13;;;;;;;;;;6117338;23;20810;-88
2021/12/22 14:07:47;;;;;;;9.73;6.87;;;;;;;;;;6117755;23;20371;-88
2021/12/22 14:10:16;;;;;;;9.48;7.07;;;;;;;;;;6117411;23;20367;-88
2021/12/22 14:12:58;;;;;;;9.65;6.82;;;;;;;;;;6116813;23;20838;-88
2021/12/22 14:15:37;;;;;;;8.45;6.43;;;;;;;;;;6118750;23;20370;-88
2021/12/22 14:18:04;;;;;;;9.93;6.40;;;;;;;;;;6119464;23;20680;-88
2021/12/22 14:20:39;;;;;;;10.45;7.15;;;;;;;;;;6118857;23;20374;-88
2021/12/22 14:23:06;;;;;;;14.82;8.25;;;;;;;;;;6118661;23;20371;-88
2021/12/22 14:25:37;;;;;;;10.18;7.15;;;;;;;;;;6118948;23;20744;-87
2021/12/22 14:28:20;;;;;;;9.70;6.90;;;;;;;;;;6118928;23;20434;-88
2021/12/22 14:30:47;;;;;;;10.05;6.97;;;;;;;;;;6119264;23;20426;-88
2021/12/22 14:33:16;;;;;;;9.77;7.20;;;;;;;;;;6117831;23;20379;-87
2021/12/22 14:35:46;;;;;;;9.80;7.28;;;;;;;;;;6118118;23;20458;-88
2021/12/22 14:38:19;;;;;;;9.70;7.22;;;;;;;;;;6118279;23;20374;-88
2021/12/22 14:40:53;;;;;;;10.07;7.50;;;;;;;;;;6118723;23;20363;-87
2021/12/22 14:43:23;;;;;;;9.80;7.35;;;;;;;;;;6118974;23;20481;-88
2021/12/22 14:45:51;;;;;;;10.52;7.57;;;;;;;;;;6118545;23;20788;-88
2021/12/22 14:48:20;;;;;;;19.42;7.82;;;;;;;;;;6118787;23;20725;-87
2021/12/22 14:51:00;;;;;;;13.97;8.20;;;;;;;;;;6118361;23;20461;-87
2021/12/22 14:53:36;;;;;;;15.05;8.07;;;;;;;;;;6120723;23;20450;-87
2021/12/22 14:56:05;;;;;;;10.30;8.13;;;;;;;;;;6126429;23;20421;-87
2021/12/22 14:58:36;;;;;;;12.10;8.35;;;;;;;;;;6145760;23;20404;-87
2021/12/22 15:01:04;;;;;;;11.20;8.55;;;;;;;;;;6137862;23;20701;-88